Time;durP1;ratioP1;P1;durP2;ratioP2;P2;SDS_P1;SDS_P2;PMS_P1;PMS_P2;Temp;Humidity;BMP_temperature;BMP_pressure;BME280_temperature;BME280_humidity;BME280_pressure;Samples;Min_cycle;Max_cycle;Signal;HPM_P1;HPM_P2
2021/11/30 00:02:25;;;;;;;7.50;3.60;;;;;;;;;;5072111;28;20221;-80
2021/11/30 00:04:52;;;;;;;4.10;3.40;;;;;;;;;;5054067;28;20557;-82
2021/11/30 00:07:19;;;;;;;3.83;3.50;;;;;;;;;;5071840;28;20246;-82
2021/11/30 00:12:33;;;;;;;4.27;3.57;;;;;;;;;;5053752;28;20295;-82
2021/11/30 00:14:59;;;;;;;6.13;3.70;;;;;;;;;;5071895;28;20238;-81
2021/11/30 00:17:26;;;;;;;5.20;3.33;;;;;;;;;;5071746;28;20209;-82
2021/11/30 00:19:53;;;;;;;6.27;3.30;;;;;;;;;;5053652;28;20539;-81
2021/11/30 00:22:21;;;;;;;6.40;3.80;;;;;;;;;;5071283;28;20195;-82
2021/11/30 00:24:48;;;;;;;4.00;3.03;;;;;;;;;;5071320;28;20717;-82
2021/11/30 00:27:15;;;;;;;5.43;3.17;;;;;;;;;;5071399;28;20202;-82
2021/11/30 00:29:43;;;;;;;4.00;3.30;;;;;;;;;;5053406;28;20229;-81
2021/11/30 00:32:10;;;;;;;12.13;3.47;;;;;;;;;;5071534;28;20262;-81
2021/11/30 00:34:37;;;;;;;6.83;2.87;;;;;;;;;;5053586;28;20578;-82
2021/11/30 00:37:04;;;;;;;4.30;3.20;;;;;;;;;;5053226;28;20230;-82
2021/11/30 00:39:31;;;;;;;4.07;3.10;;;;;;;;;;5053577;28;20229;-81
2021/11/30 00:41:59;;;;;;;6.27;3.20;;;;;;;;;;5052067;28;20288;-81
2021/11/30 00:44:28;;;;;;;3.30;3.00;;;;;;;;;;5053408;28;20256;-82
2021/11/30 00:46:57;;;;;;;2.77;2.43;;;;;;;;;;5053387;28;20222;-82
2021/11/30 00:49:25;;;;;;;5.60;2.73;;;;;;;;;;5053399;28;20230;-82
2021/11/30 00:51:53;;;;;;;2.90;2.40;;;;;;;;;;5053441;28;20242;-81
2021/11/30 00:54:20;;;;;;;5.10;2.70;;;;;;;;;;5053343;28;20673;-81
2021/11/30 00:56:49;;;;;;;3.67;2.20;;;;;;;;;;5053260;28;20199;-81
2021/11/30 00:59:16;;;;;;;5.00;2.60;;;;;;;;;;5053355;28;20183;-82
2021/11/30 01:01:45;;;;;;;3.93;2.53;;;;;;;;;;5071347;28;20588;-82
2021/11/30 01:04:13;;;;;;;4.23;2.60;;;;;;;;;;5053328;28;20267;-81
2021/11/30 01:06:40;;;;;;;5.83;2.63;;;;;;;;;;5053251;28;20723;-82
2021/11/30 01:09:07;;;;;;;6.37;2.73;;;;;;;;;;5071005;28;20647;-81
2021/11/30 01:11:33;;;;;;;3.50;2.50;;;;;;;;;;5070917;28;20694;-82
2021/11/30 01:14:00;;;;;;;4.83;3.33;;;;;;;;;;5052638;28;20234;-82
2021/11/30 01:16:27;;;;;;;5.20;2.90;;;;;;;;;;5052981;28;20276;-82
2021/11/30 01:18:54;;;;;;;6.80;3.10;;;;;;;;;;5071265;28;20586;-82
2021/11/30 01:21:22;;;;;;;6.20;2.60;;;;;;;;;;5070577;28;20233;-82
2021/11/30 01:23:49;;;;;;;2.83;2.37;;;;;;;;;;5070839;28;20234;-82
2021/11/30 01:26:16;;;;;;;5.83;2.60;;;;;;;;;;5070454;28;20280;-82
2021/11/30 01:28:42;;;;;;;3.87;2.50;;;;;;;;;;5052844;28;20218;-81
2021/11/30 01:31:09;;;;;;;4.23;2.80;;;;;;;;;;5070805;28;20756;-81
2021/11/30 01:33:36;;;;;;;4.57;2.67;;;;;;;;;;5052723;28;20238;-82
2021/11/30 01:36:02;;;;;;;4.87;3.13;;;;;;;;;;5071037;28;20237;-82
2021/11/30 01:38:31;;;;;;;3.43;3.13;;;;;;;;;;5071514;28;20207;-82
2021/11/30 01:40:59;;;;;;;2.97;2.67;;;;;;;;;;5053068;28;20198;-81
2021/11/30 01:43:28;;;;;;;3.17;2.67;;;;;;;;;;5052767;28;20539;-81
2021/11/30 01:46:06;;;;;;;3.23;3.00;;;;;;;;;;5053325;28;20191;-81
2021/11/30 01:51:17;;;;;;;3.57;2.70;;;;;;;;;;5053217;28;20303;-81
2021/11/30 01:53:45;;;;;;;5.33;2.70;;;;;;;;;;5072532;28;20320;-81
2021/11/30 01:56:11;;;;;;;3.93;3.07;;;;;;;;;;5056690;28;20203;-81
2021/11/30 01:58:38;;;;;;;3.60;2.57;;;;;;;;;;5074193;28;20605;-81
2021/11/30 02:01:06;;;;;;;3.83;2.80;;;;;;;;;;5056863;28;20198;-82
2021/11/30 02:03:34;;;;;;;6.17;3.13;;;;;;;;;;5073980;28;20234;-82
2021/11/30 02:06:00;;;;;;;3.33;2.43;;;;;;;;;;5074926;28;20203;-82
2021/11/30 02:08:27;;;;;;;6.00;2.60;;;;;;;;;;5074353;28;20254;-82
2021/11/30 02:10:56;;;;;;;3.13;2.57;;;;;;;;;;5039713;28;20234;-82
2021/11/30 02:13:23;;;;;;;3.77;2.30;;;;;;;;;;5074382;28;20265;-82
2021/11/30 02:15:54;;;;;;;6.90;3.07;;;;;;;;;;5056421;28;20214;-81
2021/11/30 02:18:23;;;;;;;4.03;3.10;;;;;;;;;;5056389;28;20292;-81
2021/11/30 02:20:53;;;;;;;7.23;2.53;;;;;;;;;;5056162;28;20210;-82
2021/11/30 02:23:31;;;;;;;2.73;2.40;;;;;;;;;;5056221;28;20225;-82
2021/11/30 02:25:58;;;;;;;4.43;2.90;;;;;;;;;;5056400;28;20265;-82
2021/11/30 02:28:25;;;;;;;3.67;2.70;;;;;;;;;;5055786;28;20190;-81
2021/11/30 02:30:51;;;;;;;4.77;2.63;;;;;;;;;;5074244;28;20214;-82
2021/11/30 02:33:18;;;;;;;3.53;2.67;;;;;;;;;;5055687;28;20253;-82
2021/11/30 02:35:45;;;;;;;4.00;2.93;;;;;;;;;;5074412;28;20207;-82
2021/11/30 02:38:13;;;;;;;6.10;2.80;;;;;;;;;;5055506;28;20203;-82
2021/11/30 02:40:40;;;;;;;2.47;2.23;;;;;;;;;;5056082;28;20236;-81
2021/11/30 02:43:06;;;;;;;2.63;2.40;;;;;;;;;;5055880;28;20195;-82
2021/11/30 02:45:33;;;;;;;3.43;2.50;;;;;;;;;;5056362;28;20217;-82
2021/11/30 02:48:00;;;;;;;4.13;2.77;;;;;;;;;;5055660;28;20226;-82
2021/11/30 02:50:27;;;;;;;2.40;2.20;;;;;;;;;;5055667;28;20802;-82
2021/11/30 02:52:55;;;;;;;2.87;2.57;;;;;;;;;;5055618;28;20275;-81
2021/11/30 02:55:23;;;;;;;2.67;2.13;;;;;;;;;;5073525;28;20234;-82
2021/11/30 02:57:50;;;;;;;5.07;2.53;;;;;;;;;;5073043;28;20707;-82
2021/11/30 03:00:17;;;;;;;2.93;2.27;;;;;;;;;;5055340;28;20247;-81
2021/11/30 03:02:43;;;;;;;3.50;2.50;;;;;;;;;;5055269;28;20669;-82
2021/11/30 03:05:10;;;;;;;5.00;2.57;;;;;;;;;;5072490;28;20205;-82
2021/11/30 03:07:38;;;;;;;4.40;2.20;;;;;;;;;;5054641;28;20233;-81
2021/11/30 03:10:06;;;;;;;4.07;2.30;;;;;;;;;;5055336;28;20202;-81
2021/11/30 03:12:34;;;;;;;2.67;2.30;;;;;;;;;;5072831;28;20225;-82
2021/11/30 03:15:06;;;;;;;4.20;2.20;;;;;;;;;;5055366;28;20238;-82
2021/11/30 03:17:33;;;;;;;2.90;2.30;;;;;;;;;;5073071;28;20249;-81
2021/11/30 03:19:59;;;;;;;3.27;2.33;;;;;;;;;;5072756;28;20249;-81
2021/11/30 03:22:26;;;;;;;3.17;2.47;;;;;;;;;;5054799;28;20198;-81
2021/11/30 03:24:53;;;;;;;2.77;2.57;;;;;;;;;;5072797;28;20206;-81
2021/11/30 03:27:19;;;;;;;2.90;2.57;;;;;;;;;;5054103;28;20292;-81
2021/11/30 03:29:47;;;;;;;3.07;2.87;;;;;;;;;;5072793;28;20209;-82
2021/11/30 03:33:58;;;;;;;3.83;2.57;;;;;;;;;;5053942;28;20219;-82
2021/11/30 03:35:01;;;;;;;2.93;2.37;;;;;;;;;;5072013;28;20749;-82
2021/11/30 03:37:27;;;;;;;4.33;2.53;;;;;;;;;;5072500;28;20199;-81
2021/11/30 03:39:54;;;;;;;3.00;2.60;;;;;;;;;;5072366;28;20237;-81
2021/11/30 03:42:22;;;;;;;4.57;2.60;;;;;;;;;;5054061;28;20232;-81
2021/11/30 03:44:50;;;;;;;4.73;2.60;;;;;;;;;;5072689;28;20205;-81
2021/11/30 03:47:17;;;;;;;4.37;2.87;;;;;;;;;;5054203;28;20226;-81
2021/11/30 03:49:43;;;;;;;2.77;2.57;;;;;;;;;;5054187;28;20206;-81
2021/11/30 03:52:10;;;;;;;3.10;2.50;;;;;;;;;;5054284;28;20206;-82
2021/11/30 03:54:37;;;;;;;3.57;2.63;;;;;;;;;;5054230;28;20246;-81
2021/11/30 03:57:04;;;;;;;4.50;3.47;;;;;;;;;;5054066;28;20226;-82
2021/11/30 03:59:31;;;;;;;3.43;2.70;;;;;;;;;;5054214;28;20570;-81
2021/11/30 04:01:59;;;;;;;3.17;2.80;;;;;;;;;;5054029;28;20253;-81
2021/11/30 04:04:29;;;;;;;10.97;3.30;;;;;;;;;;5072233;28;20233;-82
2021/11/30 04:06:57;;;;;;;3.53;3.00;;;;;;;;;;5054364;28;20213;-81
2021/11/30 04:09:24;;;;;;;4.10;3.07;;;;;;;;;;5072141;28;20261;-81
2021/11/30 04:11:51;;;;;;;4.57;3.00;;;;;;;;;;5054090;28;20221;-81
2021/11/30 04:14:18;;;;;;;3.30;3.03;;;;;;;;;;5054193;28;20249;-81
2021/11/30 04:16:45;;;;;;;6.57;3.20;;;;;;;;;;5071672;28;20214;-82
2021/11/30 04:19:13;;;;;;;3.73;3.17;;;;;;;;;;5053417;28;20234;-81
2021/11/30 04:21:39;;;;;;;6.03;3.37;;;;;;;;;;5071631;28;20215;-81
2021/11/30 04:24:07;;;;;;;6.97;3.23;;;;;;;;;;5054178;28;20555;-80
2021/11/30 04:26:33;;;;;;;6.80;3.30;;;;;;;;;;5053870;28;20233;-82
2021/11/30 04:29:00;;;;;;;3.57;2.80;;;;;;;;;;5072217;28;20175;-82
2021/11/30 04:31:27;;;;;;;3.97;2.70;;;;;;;;;;5053448;28;20187;-82
2021/11/30 04:33:54;;;;;;;3.33;3.03;;;;;;;;;;5053811;28;20234;-80
2021/11/30 04:36:22;;;;;;;3.97;3.00;;;;;;;;;;5071871;28;20209;-81
2021/11/30 04:38:48;;;;;;;5.30;3.27;;;;;;;;;;5052834;28;20751;-81
2021/11/30 04:41:15;;;;;;;3.50;3.20;;;;;;;;;;5053364;28;20764;-82
2021/11/30 04:43:42;;;;;;;6.43;3.40;;;;;;;;;;5053608;28;20191;-81
2021/11/30 04:46:12;;;;;;;3.37;3.10;;;;;;;;;;5071247;28;20217;-81
2021/11/30 04:48:40;;;;;;;5.97;3.10;;;;;;;;;;5053721;28;20229;-81
2021/11/30 04:51:10;;;;;;;6.67;3.10;;;;;;;;;;5053605;28;20249;-81
2021/11/30 04:53:41;;;;;;;4.13;2.83;;;;;;;;;;5054512;28;20199;-80
2021/11/30 04:56:07;;;;;;;5.77;3.30;;;;;;;;;;5091588;28;20237;-80
2021/11/30 04:58:34;;;;;;;4.63;3.13;;;;;;;;;;5073241;28;20669;-79
2021/11/30 05:01:01;;;;;;;4.27;3.03;;;;;;;;;;5091316;28;20237;-82
2021/11/30 05:03:28;;;;;;;9.60;3.27;;;;;;;;;;5066275;28;20230;-80
2021/11/30 05:05:54;;;;;;;3.33;3.10;;;;;;;;;;5083553;28;20219;-80
2021/11/30 05:08:21;;;;;;;8.33;3.20;;;;;;;;;;5052545;28;20226;-80
2021/11/30 05:10:49;;;;;;;7.37;3.77;;;;;;;;;;5061399;28;20675;-81
2021/11/30 05:13:17;;;;;;;4.30;3.23;;;;;;;;;;5051461;28;20235;-83
2021/11/30 05:15:43;;;;;;;4.50;3.40;;;;;;;;;;5049420;28;20235;-80
2021/11/30 05:18:10;;;;;;;3.60;3.30;;;;;;;;;;5051289;28;20234;-80
2021/11/30 05:20:37;;;;;;;5.80;3.40;;;;;;;;;;5057578;28;20650;-80
2021/11/30 05:23:03;;;;;;;3.40;3.10;;;;;;;;;;5071318;28;20202;-84
2021/11/30 05:25:34;;;;;;;3.87;3.33;;;;;;;;;;5071095;28;20206;-81
2021/11/30 05:28:03;;;;;;;4.03;3.63;;;;;;;;;;5066311;28;20611;-82
2021/11/30 05:30:36;;;;;;;4.03;3.23;;;;;;;;;;5055156;28;20238;-82
2021/11/30 05:33:03;;;;;;;3.40;3.10;;;;;;;;;;5053996;28;20227;-81
2021/11/30 05:35:30;;;;;;;5.40;2.93;;;;;;;;;;5054976;28;20223;-84
2021/11/30 05:37:56;;;;;;;3.43;2.60;;;;;;;;;;5054078;28;20211;-84
2021/11/30 05:40:23;;;;;;;3.30;3.00;;;;;;;;;;5053676;28;20285;-83
2021/11/30 05:42:50;;;;;;;6.07;2.93;;;;;;;;;;5053784;28;20613;-83
2021/11/30 05:45:18;;;;;;;4.60;2.97;;;;;;;;;;5054991;28;20239;-83
2021/11/30 05:47:44;;;;;;;4.03;3.03;;;;;;;;;;5066958;28;20206;-82
2021/11/30 05:50:11;;;;;;;4.90;3.07;;;;;;;;;;5073211;28;20422;-83
2021/11/30 05:52:38;;;;;;;3.90;3.20;;;;;;;;;;5053919;28;20278;-82
2021/11/30 05:55:05;;;;;;;3.23;2.93;;;;;;;;;;5054214;28;20262;-83
2021/11/30 05:57:32;;;;;;;3.47;3.27;;;;;;;;;;5053039;28;20246;-82
2021/11/30 06:00:00;;;;;;;5.07;3.63;;;;;;;;;;5054841;28;20270;-81
2021/11/30 06:02:30;;;;;;;3.80;3.50;;;;;;;;;;5054903;28;20218;-87
2021/11/30 06:04:57;;;;;;;3.73;3.40;;;;;;;;;;5054031;28;20715;-83
2021/11/30 06:07:24;;;;;;;4.73;3.60;;;;;;;;;;5053293;28;20195;-86
2021/11/30 06:09:51;;;;;;;4.30;3.93;;;;;;;;;;5053036;28;20265;-83
2021/11/30 06:12:18;;;;;;;5.10;3.80;;;;;;;;;;5055044;28;20234;-86
2021/11/30 06:14:44;;;;;;;4.37;4.03;;;;;;;;;;5054425;28;20250;-84
2021/11/30 06:17:11;;;;;;;3.97;3.63;;;;;;;;;;5053347;28;20184;-82
2021/11/30 06:19:39;;;;;;;3.97;3.67;;;;;;;;;;5055403;28;20191;-82
2021/11/30 06:22:07;;;;;;;4.27;3.87;;;;;;;;;;5054069;28;20249;-82
2021/11/30 06:24:34;;;;;;;3.63;3.33;;;;;;;;;;5052522;28;20648;-82
2021/11/30 06:27:01;;;;;;;4.03;3.73;;;;;;;;;;5053689;28;20239;-82
2021/11/30 06:29:27;;;;;;;3.63;3.43;;;;;;;;;;5052512;28;20226;-82
2021/11/30 06:31:54;;;;;;;3.13;2.93;;;;;;;;;;5053609;28;20214;-83
2021/11/30 06:34:21;;;;;;;2.97;2.70;;;;;;;;;;5052789;28;20648;-85
2021/11/30 06:36:49;;;;;;;2.77;2.57;;;;;;;;;;5052353;28;20235;-82
2021/11/30 06:39:15;;;;;;;2.40;2.30;;;;;;;;;;5052437;28;20203;-83
2021/11/30 06:41:42;;;;;;;2.30;2.20;;;;;;;;;;5052179;28;20594;-81
2021/11/30 06:44:09;;;;;;;2.40;2.20;;;;;;;;;;5053875;28;20239;-81
2021/11/30 06:46:35;;;;;;;2.13;1.93;;;;;;;;;;5051767;28;20306;-81
2021/11/30 06:49:02;;;;;;;1.87;1.87;;;;;;;;;;5053631;28;20594;-81
2021/11/30 06:51:29;;;;;;;2.03;1.93;;;;;;;;;;5051987;28;20273;-82
2021/11/30 06:53:57;;;;;;;2.60;2.40;;;;;;;;;;5053824;28;20203;-80
2021/11/30 06:56:24;;;;;;;1.90;1.80;;;;;;;;;;5053228;28;20711;-81
2021/11/30 06:58:50;;;;;;;1.80;1.80;;;;;;;;;;5051993;28;20196;-82
2021/11/30 07:01:18;;;;;;;2.13;1.97;;;;;;;;;;5051760;28;20225;-83
2021/11/30 07:03:47;;;;;;;2.50;2.10;;;;;;;;;;5053843;28;20534;-83
2021/11/30 07:06:21;;;;;;;1.87;1.63;;;;;;;;;;5051625;28;20344;-83
2021/11/30 07:08:51;;;;;;;2.40;2.30;;;;;;;;;;5063751;28;20258;-84
2021/11/30 07:11:22;;;;;;;2.57;2.47;;;;;;;;;;5073047;28;20243;-83
2021/11/30 07:13:49;;;;;;;2.23;2.13;;;;;;;;;;5055294;28;20570;-84
2021/11/30 07:16:16;;;;;;;1.93;1.83;;;;;;;;;;5072917;28;20226;-83
2021/11/30 07:18:43;;;;;;;2.13;2.03;;;;;;;;;;5055338;28;20213;-84
2021/11/30 07:21:10;;;;;;;2.27;2.17;;;;;;;;;;5072720;28;20738;-83
2021/11/30 07:23:36;;;;;;;2.57;2.37;;;;;;;;;;5055655;28;20604;-82
2021/11/30 07:26:03;;;;;;;2.40;2.30;;;;;;;;;;5054955;28;20558;-83
2021/11/30 07:28:32;;;;;;;2.00;1.93;;;;;;;;;;5073238;28;20206;-84
2021/11/30 07:31:00;;;;;;;2.50;2.30;;;;;;;;;;5054357;28;20230;-85
2021/11/30 07:33:27;;;;;;;2.27;2.07;;;;;;;;;;5055038;28;20194;-85
2021/11/30 07:35:54;;;;;;;2.60;2.40;;;;;;;;;;5072756;28;20717;-84
2021/11/30 07:38:22;;;;;;;2.10;1.70;;;;;;;;;;5056607;28;20199;-84
2021/11/30 07:40:49;;;;;;;2.30;1.87;;;;;;;;;;5061357;28;20209;-84
2021/11/30 07:43:17;;;;;;;2.00;1.90;;;;;;;;;;5059699;28;20703;-84
2021/11/30 07:45:46;;;;;;;2.03;1.93;;;;;;;;;;5059103;28;20187;-85
2021/11/30 07:48:13;;;;;;;2.30;2.20;;;;;;;;;;5077942;28;20175;-85
2021/11/30 07:50:42;;;;;;;1.70;1.60;;;;;;;;;;5059281;28;20721;-84
2021/11/30 07:53:14;;;;;;;2.50;2.30;;;;;;;;;;5076800;28;20220;-85
2021/11/30 07:55:42;;;;;;;2.10;2.00;;;;;;;;;;5060546;28;20587;-84
2021/11/30 07:58:10;;;;;;;2.20;2.10;;;;;;;;;;5077305;28;20219;-83
2021/11/30 08:00:37;;;;;;;1.90;1.70;;;;;;;;;;5059307;28;20575;-83
2021/11/30 08:03:06;;;;;;;1.83;1.73;;;;;;;;;;5076795;28;20199;-84
2021/11/30 08:05:34;;;;;;;1.90;1.80;;;;;;;;;;5058902;28;20202;-83
2021/11/30 08:08:01;;;;;;;1.93;1.83;;;;;;;;;;5077576;28;20226;-83
2021/11/30 08:10:33;;;;;;;2.30;1.70;;;;;;;;;;5058211;28;20195;-83
2021/11/30 08:13:01;;;;;;;1.77;1.67;;;;;;;;;;5062993;28;20200;-85
2021/11/30 08:15:29;;;;;;;1.43;1.43;;;;;;;;;;5061314;28;20206;-83
2021/11/30 08:17:57;;;;;;;2.30;1.50;;;;;;;;;;5059749;28;20252;-83
2021/11/30 08:20:26;;;;;;;1.67;1.57;;;;;;;;;;5058611;28;20194;-84
2021/11/30 08:22:57;;;;;;;1.53;1.50;;;;;;;;;;5076806;28;20179;-85
2021/11/30 08:25:25;;;;;;;1.83;1.73;;;;;;;;;;5058722;28;20202;-85
2021/11/30 08:27:53;;;;;;;1.60;1.50;;;;;;;;;;5076565;28;20257;-86
2021/11/30 08:30:20;;;;;;;1.33;1.33;;;;;;;;;;5057831;28;20226;-84
2021/11/30 08:32:47;;;;;;;2.10;1.07;;;;;;;;;;5075027;28;20699;-87
2021/11/30 08:35:14;;;;;;;1.43;1.43;;;;;;;;;;5074060;28;20230;-85
2021/11/30 08:37:44;;;;;;;1.57;1.53;;;;;;;;;;5063232;28;20202;-85
2021/11/30 08:40:12;;;;;;;2.90;1.60;;;;;;;;;;5063092;28;20217;-85
2021/11/30 08:42:39;;;;;;;1.50;1.40;;;;;;;;;;5070504;28;20611;-85
2021/11/30 08:45:07;;;;;;;1.30;1.30;;;;;;;;;;5074385;28;20248;-86
2021/11/30 08:47:34;;;;;;;1.23;1.13;;;;;;;;;;5074539;28;20186;-84
2021/11/30 08:50:00;;;;;;;1.20;1.20;;;;;;;;;;5073397;28;20729;-85
2021/11/30 08:52:28;;;;;;;1.13;1.13;;;;;;;;;;5074464;28;20194;-84
2021/11/30 08:54:56;;;;;;;1.20;1.20;;;;;;;;;;5092012;28;20206;-83
2021/11/30 08:57:24;;;;;;;1.30;1.20;;;;;;;;;;5074117;28;20241;-82
2021/11/30 08:59:50;;;;;;;0.80;0.80;;;;;;;;;;5074066;28;20618;-82
2021/11/30 09:02:18;;;;;;;1.20;1.20;;;;;;;;;;5074331;28;20599;-82
2021/11/30 09:04:44;;;;;;;0.93;0.93;;;;;;;;;;5095946;28;20247;-83
2021/11/30 09:07:11;;;;;;;1.00;1.00;;;;;;;;;;5078419;28;20213;-82
2021/11/30 09:09:38;;;;;;;0.90;0.90;;;;;;;;;;5095511;28;20257;-81
2021/11/30 09:12:07;;;;;;;2.70;0.90;;;;;;;;;;5077978;28;20221;-82
2021/11/30 09:14:34;;;;;;;0.90;0.90;;;;;;;;;;5077562;28;20259;-83
2021/11/30 09:17:01;;;;;;;1.80;1.00;;;;;;;;;;5077643;28;20693;-83
2021/11/30 09:19:28;;;;;;;0.90;0.90;;;;;;;;;;5096085;28;20205;-82
2021/11/30 09:21:55;;;;;;;0.80;0.80;;;;;;;;;;5095853;28;20233;-81
2021/11/30 09:24:21;;;;;;;0.70;0.70;;;;;;;;;;5077331;28;20205;-82
2021/11/30 09:26:48;;;;;;;0.60;0.60;;;;;;;;;;5095038;28;20263;-82
2021/11/30 09:29:16;;;;;;;0.70;0.70;;;;;;;;;;5095419;28;20214;-82
2021/11/30 09:31:43;;;;;;;0.67;0.67;;;;;;;;;;5095673;28;20342;-82
2021/11/30 09:34:10;;;;;;;0.50;0.50;;;;;;;;;;5095517;28;20206;-82
2021/11/30 09:36:37;;;;;;;0.60;0.60;;;;;;;;;;5077633;28;20249;-82
2021/11/30 09:39:05;;;;;;;0.60;0.60;;;;;;;;;;5078102;28;20604;-82
2021/11/30 09:41:32;;;;;;;0.50;0.50;;;;;;;;;;5077702;28;20658;-82
2021/11/30 09:43:59;;;;;;;0.57;0.57;;;;;;;;;;5077548;28;20236;-82
2021/11/30 09:46:27;;;;;;;0.50;0.50;;;;;;;;;;5077428;28;20182;-81
2021/11/30 09:48:54;;;;;;;0.80;0.80;;;;;;;;;;5076995;28;20220;-81
2021/11/30 09:51:20;;;;;;;0.50;0.50;;;;;;;;;;5077145;28;20251;-81
2021/11/30 09:53:47;;;;;;;0.60;0.60;;;;;;;;;;5076967;28;20262;-80
2021/11/30 09:56:14;;;;;;;0.40;0.40;;;;;;;;;;5076782;28;20249;-81
2021/11/30 09:58:41;;;;;;;0.83;0.70;;;;;;;;;;5076602;28;20206;-81
2021/11/30 10:01:11;;;;;;;0.70;0.70;;;;;;;;;;5076589;28;20229;-82
2021/11/30 10:03:40;;;;;;;0.60;0.60;;;;;;;;;;5076726;28;20273;-81
2021/11/30 10:06:07;;;;;;;0.50;0.50;;;;;;;;;;5077611;28;20247;-81
2021/11/30 10:08:34;;;;;;;0.70;0.70;;;;;;;;;;5073207;28;20234;-81
2021/11/30 10:11:01;;;;;;;0.70;0.70;;;;;;;;;;5074365;28;20229;-82
2021/11/30 10:13:28;;;;;;;0.50;0.50;;;;;;;;;;5074576;28;20211;-82
2021/11/30 10:15:57;;;;;;;0.60;0.60;;;;;;;;;;5074351;28;20206;-84
2021/11/30 10:18:24;;;;;;;0.60;0.60;;;;;;;;;;5074443;28;20241;-85
2021/11/30 10:20:54;;;;;;;1.40;0.97;;;;;;;;;;5073487;28;20650;-83
2021/11/30 10:23:23;;;;;;;0.70;0.70;;;;;;;;;;5073439;28;20573;-81
2021/11/30 10:25:50;;;;;;;0.67;0.67;;;;;;;;;;5072635;28;20202;-82
2021/11/30 10:28:18;;;;;;;0.60;0.60;;;;;;;;;;5073415;28;20572;-83
2021/11/30 10:30:45;;;;;;;1.67;0.60;;;;;;;;;;5072813;28;20559;-83
2021/11/30 10:33:15;;;;;;;0.50;0.50;;;;;;;;;;5072789;28;20198;-84
2021/11/30 10:35:42;;;;;;;0.60;0.60;;;;;;;;;;5072465;28;20566;-85
2021/11/30 10:38:10;;;;;;;0.60;0.60;;;;;;;;;;5074325;28;20226;-79
2021/11/30 10:40:38;;;;;;;0.53;0.53;;;;;;;;;;5074170;28;20229;-81
2021/11/30 10:43:06;;;;;;;0.57;0.57;;;;;;;;;;5072839;28;20245;-81
2021/11/30 10:45:34;;;;;;;0.80;0.77;;;;;;;;;;5072578;28;20214;-81
2021/11/30 10:48:02;;;;;;;0.63;0.63;;;;;;;;;;5072635;28;20226;-82
2021/11/30 10:50:33;;;;;;;0.70;0.70;;;;;;;;;;5072313;28;20745;-81
2021/11/30 10:53:00;;;;;;;0.50;0.50;;;;;;;;;;5074108;28;20245;-81
2021/11/30 10:55:29;;;;;;;2.67;2.10;;;;;;;;;;5072360;28;20237;-82
2021/11/30 10:57:56;;;;;;;0.50;0.50;;;;;;;;;;5073525;28;20278;-83
2021/11/30 11:00:27;;;;;;;1.73;0.80;;;;;;;;;;5072764;28;20202;-81
2021/11/30 11:03:00;;;;;;;0.90;0.90;;;;;;;;;;5069599;28;20636;-82
2021/11/30 11:05:28;;;;;;;0.87;0.87;;;;;;;;;;5052114;28;20199;-81
2021/11/30 11:07:58;;;;;;;0.90;0.70;;;;;;;;;;5067891;28;20234;-83
2021/11/30 11:10:25;;;;;;;0.80;0.80;;;;;;;;;;5073602;28;20210;-82
2021/11/30 11:12:53;;;;;;;0.93;0.93;;;;;;;;;;5071983;28;20248;-81
2021/11/30 11:15:35;;;;;;;0.50;0.50;;;;;;;;;;5073850;28;20171;-82
2021/11/30 11:18:17;;;;;;;0.57;0.57;;;;;;;;;;5073248;28;20250;-83
2021/11/30 11:20:44;;;;;;;0.60;0.60;;;;;;;;;;5087807;28;20209;-79
2021/11/30 11:23:19;;;;;;;0.60;0.60;;;;;;;;;;5093088;28;20233;-85
2021/11/30 11:25:45;;;;;;;0.40;0.40;;;;;;;;;;5075036;28;20198;-87
2021/11/30 11:28:13;;;;;;;0.73;0.73;;;;;;;;;;5075538;28;20195;-82
2021/11/30 11:30:41;;;;;;;0.73;0.73;;;;;;;;;;5067280;28;20518;-83
2021/11/30 11:33:07;;;;;;;0.93;0.93;;;;;;;;;;5055985;28;20202;-84
2021/11/30 11:35:34;;;;;;;3.07;2.07;;;;;;;;;;5073795;28;20218;-83
2021/11/30 11:38:01;;;;;;;0.60;0.60;;;;;;;;;;5055214;28;20246;-85
2021/11/30 11:40:27;;;;;;;1.20;1.20;;;;;;;;;;5073772;28;20245;-86
2021/11/30 11:42:56;;;;;;;1.50;1.40;;;;;;;;;;5055464;28;20248;-82
2021/11/30 11:45:24;;;;;;;0.57;0.57;;;;;;;;;;5055720;28;20202;-86
2021/11/30 11:47:51;;;;;;;0.60;0.60;;;;;;;;;;5054358;28;20228;-80
2021/11/30 11:50:18;;;;;;;0.70;0.70;;;;;;;;;;5055049;28;20588;-86
2021/11/30 11:52:44;;;;;;;1.00;1.00;;;;;;;;;;5054861;28;20242;-83
2021/11/30 11:55:13;;;;;;;0.70;0.60;;;;;;;;;;5054710;28;20233;-85
2021/11/30 11:57:41;;;;;;;0.67;0.67;;;;;;;;;;5069019;28;20295;-82
2021/11/30 12:00:15;;;;;;;0.60;0.60;;;;;;;;;;5075127;28;20209;-82
2021/11/30 12:02:49;;;;;;;1.17;0.63;;;;;;;;;;5092870;28;20212;-81
2021/11/30 12:05:16;;;;;;;0.80;0.80;;;;;;;;;;5073811;28;21165;-82
2021/11/30 12:07:57;;;;;;;1.00;1.00;;;;;;;;;;5074050;28;20323;-82
2021/11/30 12:10:25;;;;;;;0.70;0.70;;;;;;;;;;5073903;28;20229;-81
2021/11/30 12:12:56;;;;;;;0.40;0.40;;;;;;;;;;5073735;28;20205;-82
2021/11/30 12:15:24;;;;;;;0.80;0.80;;;;;;;;;;5073925;28;20198;-81
2021/11/30 12:17:53;;;;;;;0.77;0.77;;;;;;;;;;5092200;28;20224;-82
2021/11/30 12:20:20;;;;;;;0.77;0.77;;;;;;;;;;5074036;28;20217;-81
2021/11/30 12:22:52;;;;;;;0.70;0.70;;;;;;;;;;5055981;28;20597;-80
2021/11/30 12:25:23;;;;;;;0.63;0.63;;;;;;;;;;5071642;28;20175;-81
2021/11/30 12:27:50;;;;;;;0.70;0.70;;;;;;;;;;5053458;28;20647;-81
2021/11/30 12:30:35;;;;;;;0.50;0.50;;;;;;;;;;5053555;28;20214;-81
2021/11/30 12:33:04;;;;;;;0.40;0.40;;;;;;;;;;5071365;28;20202;-81
2021/11/30 12:35:42;;;;;;;0.50;0.50;;;;;;;;;;5053738;28;20233;-81
2021/11/30 12:38:19;;;;;;;0.40;0.40;;;;;;;;;;5052899;28;20295;-80
2021/11/30 12:40:49;;;;;;;2.53;0.60;;;;;;;;;;5053105;28;20228;-80
2021/11/30 12:43:19;;;;;;;0.80;0.80;;;;;;;;;;5071426;28;20225;-81
2021/11/30 12:45:47;;;;;;;0.50;0.40;;;;;;;;;;5071886;28;20210;-82
2021/11/30 12:48:19;;;;;;;0.50;0.50;;;;;;;;;;5036886;28;20577;-80
2021/11/30 12:50:46;;;;;;;0.30;0.30;;;;;;;;;;5071815;28;20230;-81
2021/11/30 12:53:14;;;;;;;0.30;0.30;;;;;;;;;;5054314;28;20202;-81
2021/11/30 12:55:45;;;;;;;0.47;0.47;;;;;;;;;;5054383;28;20225;-79
2021/11/30 12:58:30;;;;;;;0.50;0.50;;;;;;;;;;5053606;28;20249;-81
2021/11/30 13:01:11;;;;;;;0.50;0.40;;;;;;;;;;5072485;28;20217;-80
2021/11/30 13:03:39;;;;;;;0.57;0.57;;;;;;;;;;5054677;28;20604;-81
2021/11/30 13:06:07;;;;;;;0.40;0.40;;;;;;;;;;5072415;28;20297;-80
2021/11/30 13:08:49;;;;;;;0.60;0.60;;;;;;;;;;5053865;28;20230;-81
2021/11/30 13:11:16;;;;;;;1.17;0.50;;;;;;;;;;5053956;28;20198;-81
2021/11/30 13:13:43;;;;;;;0.43;0.43;;;;;;;;;;5053424;28;20190;-81
2021/11/30 13:16:10;;;;;;;0.37;0.37;;;;;;;;;;5053929;28;20194;-80
2021/11/30 13:18:36;;;;;;;0.50;0.50;;;;;;;;;;5071600;28;20290;-81
2021/11/30 13:21:07;;;;;;;0.40;0.40;;;;;;;;;;5071855;28;20580;-80
2021/11/30 13:23:33;;;;;;;0.40;0.40;;;;;;;;;;5052903;28;20226;-81
2021/11/30 13:26:00;;;;;;;0.73;0.50;;;;;;;;;;5053787;28;20716;-82
2021/11/30 13:28:29;;;;;;;0.70;0.70;;;;;;;;;;5053400;28;20187;-81
2021/11/30 13:30:58;;;;;;;0.50;0.50;;;;;;;;;;5053556;28;20651;-81
2021/11/30 13:33:26;;;;;;;0.97;0.30;;;;;;;;;;5071368;28;20639;-81
2021/11/30 13:35:54;;;;;;;0.40;0.40;;;;;;;;;;5053580;28;20233;-81
2021/11/30 13:38:24;;;;;;;0.53;0.53;;;;;;;;;;5071003;28;20247;-82
2021/11/30 13:40:53;;;;;;;0.40;0.40;;;;;;;;;;5070730;28;20245;-81
2021/11/30 13:43:21;;;;;;;0.40;0.40;;;;;;;;;;5053230;28;20230;-81
2021/11/30 13:45:49;;;;;;;0.50;0.50;;;;;;;;;;5052790;28;20273;-81
2021/11/30 13:48:16;;;;;;;0.43;0.40;;;;;;;;;;5071164;28;20203;-81
2021/11/30 13:50:44;;;;;;;0.40;0.40;;;;;;;;;;5055790;28;20244;-82
2021/11/30 13:53:13;;;;;;;0.50;0.50;;;;;;;;;;5056551;28;20215;-82
2021/11/30 13:55:43;;;;;;;0.60;0.60;;;;;;;;;;5074551;28;20210;-82
2021/11/30 13:58:16;;;;;;;0.40;0.40;;;;;;;;;;5056146;28;20250;-82
2021/11/30 14:00:49;;;;;;;1.43;0.90;;;;;;;;;;5056437;28;20303;-82
2021/11/30 14:03:16;;;;;;;0.53;0.53;;;;;;;;;;5056669;28;20203;-82
2021/11/30 14:05:42;;;;;;;0.60;0.60;;;;;;;;;;5074055;28;20253;-82
2021/11/30 14:08:09;;;;;;;1.20;1.10;;;;;;;;;;5052902;28;20254;-81
2021/11/30 14:10:40;;;;;;;1.50;1.40;;;;;;;;;;5052789;28;20269;-81
2021/11/30 14:13:08;;;;;;;1.87;1.67;;;;;;;;;;5054164;28;20265;-81
2021/11/30 14:15:35;;;;;;;1.67;1.40;;;;;;;;;;5052521;28;20235;-80
2021/11/30 14:18:03;;;;;;;1.63;1.13;;;;;;;;;;5054281;28;20267;-81
2021/11/30 14:20:30;;;;;;;1.23;1.20;;;;;;;;;;5052391;28;20204;-81
2021/11/30 14:22:57;;;;;;;0.70;0.70;;;;;;;;;;5054456;28;20235;-82
2021/11/30 14:25:24;;;;;;;0.63;0.63;;;;;;;;;;5052883;28;20264;-81
2021/11/30 14:27:52;;;;;;;0.60;0.60;;;;;;;;;;5054139;28;20210;-82
2021/11/30 14:30:22;;;;;;;0.50;0.50;;;;;;;;;;5054222;28;20180;-82
2021/11/30 14:33:00;;;;;;;0.50;0.50;;;;;;;;;;5052753;28;20207;-83
2021/11/30 14:35:28;;;;;;;0.60;0.60;;;;;;;;;;5052348;28;20211;-82
2021/11/30 14:37:54;;;;;;;0.60;0.60;;;;;;;;;;5052744;28;20644;-82
2021/11/30 14:40:23;;;;;;;0.40;0.40;;;;;;;;;;5052598;28;20237;-82
2021/11/30 14:42:51;;;;;;;0.57;0.57;;;;;;;;;;5054145;28;20211;-82
2021/11/30 14:45:29;;;;;;;0.60;0.60;;;;;;;;;;5053924;28;20208;-81
2021/11/30 14:48:04;;;;;;;0.33;0.33;;;;;;;;;;5052612;28;20199;-85
2021/11/30 14:50:34;;;;;;;0.50;0.50;;;;;;;;;;5051772;28;20272;-82
2021/11/30 14:53:00;;;;;;;0.33;0.33;;;;;;;;;;5052868;28;20214;-80
2021/11/30 14:55:30;;;;;;;0.40;0.40;;;;;;;;;;5052007;28;20573;-80